sensor_id;sensor_type;location;lat;lon;timestamp;P1;durP1;ratioP1;P2;durP2;ratioP2
55146;SDS011;41039;49.830;23.988;2022-11-20T00:02:02;23.73;;;11.75;;
55146;SDS011;41039;49.830;23.988;2022-11-20T00:04:27;21.00;;;11.63;;
55146;SDS011;41039;49.830;23.988;2022-11-20T00:06:53;20.58;;;11.35;;
55146;SDS011;41039;49.830;23.988;2022-11-20T00:09:18;20.58;;;12.05;;
55146;SDS011;41039;49.830;23.988;2022-11-20T00:11:43;22.00;;;12.23;;
55146;SDS011;41039;49.830;23.988;2022-11-20T00:14:08;20.45;;;11.30;;
55146;SDS011;41039;49.830;23.988;2022-11-20T00:16:34;19.90;;;11.38;;
55146;SDS011;41039;49.830;23.988;2022-11-20T00:18:59;19.90;;;11.73;;
55146;SDS011;41039;49.830;23.988;2022-11-20T00:21:25;19.77;;;10.45;;
55146;SDS011;41039;49.830;23.988;2022-11-20T00:23:51;19.98;;;12.35;;
55146;SDS011;41039;49.830;23.988;2022-11-20T00:26:18;22.58;;;12.18;;
55146;SDS011;41039;49.830;23.988;2022-11-20T00:28:48;20.60;;;11.30;;
55146;SDS011;41039;49.830;23.988;2022-11-20T00:31:14;20.50;;;11.05;;
55146;SDS011;41039;49.830;23.988;2022-11-20T00:33:40;22.42;;;11.80;;
55146;SDS011;41039;49.830;23.988;2022-11-20T00:36:27;19.77;;;11.02;;
55146;SDS011;41039;49.830;23.988;2022-11-20T00:38:52;19.60;;;10.70;;
55146;SDS011;41039;49.830;23.988;2022-11-20T00:41:18;21.00;;;11.30;;
55146;SDS011;41039;49.830;23.988;2022-11-20T00:43:43;19.42;;;9.52;;
55146;SDS011;41039;49.830;23.988;2022-11-20T00:46:15;17.27;;;10.48;;
55146;SDS011;41039;49.830;23.988;2022-11-20T00:48:41;22.02;;;10.85;;
55146;SDS011;41039;49.830;23.988;2022-11-20T00:51:07;18.58;;;10.63;;
55146;SDS011;41039;49.830;23.988;2022-11-20T00:53:32;20.80;;;10.20;;
55146;SDS011;41039;49.830;23.988;2022-11-20T00:56:05;18.48;;;10.68;;
55146;SDS011;41039;49.830;23.988;2022-11-20T00:58:32;22.90;;;11.70;;
55146;SDS011;41039;49.830;23.988;2022-11-20T01:01:01;20.58;;;11.35;;
55146;SDS011;41039;49.830;23.988;2022-11-20T01:03:27;22.33;;;11.40;;
55146;SDS011;41039;49.830;23.988;2022-11-20T01:05:52;22.30;;;11.68;;
55146;SDS011;41039;49.830;23.988;2022-11-20T01:08:17;19.70;;;10.93;;
55146;SDS011;41039;49.830;23.988;2022-11-20T01:10:42;20.13;;;11.25;;
55146;SDS011;41039;49.830;23.988;2022-11-20T01:13:08;18.13;;;10.60;;
55146;SDS011;41039;49.830;23.988;2022-11-20T01:18:17;21.75;;;11.23;;
55146;SDS011;41039;49.830;23.988;2022-11-20T01:20:42;23.58;;;10.73;;
55146;SDS011;41039;49.830;23.988;2022-11-20T01:23:07;19.92;;;10.80;;
55146;SDS011;41039;49.830;23.988;2022-11-20T01:25:33;21.77;;;11.68;;
55146;SDS011;41039;49.830;23.988;2022-11-20T01:27:59;20.50;;;10.27;;
55146;SDS011;41039;49.830;23.988;2022-11-20T01:30:24;23.27;;;12.30;;
55146;SDS011;41039;49.830;23.988;2022-11-20T01:32:49;21.42;;;11.43;;
55146;SDS011;41039;49.830;23.988;2022-11-20T01:35:14;25.73;;;12.18;;
55146;SDS011;41039;49.830;23.988;2022-11-20T01:37:40;25.85;;;11.50;;
55146;SDS011;41039;49.830;23.988;2022-11-20T01:40:05;25.20;;;12.15;;
55146;SDS011;41039;49.830;23.988;2022-11-20T01:42:30;24.23;;;12.68;;
55146;SDS011;41039;49.830;23.988;2022-11-20T01:47:58;23.20;;;11.52;;
55146;SDS011;41039;49.830;23.988;2022-11-20T01:50:27;23.77;;;11.73;;
55146;SDS011;41039;49.830;23.988;2022-11-20T01:52:55;25.83;;;11.95;;
55146;SDS011;41039;49.830;23.988;2022-11-20T01:55:22;23.30;;;12.13;;
55146;SDS011;41039;49.830;23.988;2022-11-20T01:57:49;23.58;;;11.65;;
55146;SDS011;41039;49.830;23.988;2022-11-20T02:00:16;23.98;;;11.38;;
55146;SDS011;41039;49.830;23.988;2022-11-20T02:02:43;21.48;;;11.93;;
55146;SDS011;41039;49.830;23.988;2022-11-20T02:05:12;23.50;;;12.05;;
55146;SDS011;41039;49.830;23.988;2022-11-20T02:07:39;20.73;;;11.35;;
55146;SDS011;41039;49.830;23.988;2022-11-20T02:10:05;22.80;;;12.18;;
55146;SDS011;41039;49.830;23.988;2022-11-20T02:12:30;24.88;;;13.13;;
55146;SDS011;41039;49.830;23.988;2022-11-20T02:15:14;23.38;;;12.32;;
55146;SDS011;41039;49.830;23.988;2022-11-20T02:17:40;26.65;;;13.35;;
55146;SDS011;41039;49.830;23.988;2022-11-20T02:20:05;27.58;;;12.38;;
55146;SDS011;41039;49.830;23.988;2022-11-20T02:22:33;25.65;;;12.80;;
55146;SDS011;41039;49.830;23.988;2022-11-20T02:25:00;26.02;;;12.55;;
55146;SDS011;41039;49.830;23.988;2022-11-20T02:27:27;31.13;;;13.52;;
55146;SDS011;41039;49.830;23.988;2022-11-20T02:29:53;25.92;;;12.45;;
55146;SDS011;41039;49.830;23.988;2022-11-20T02:32:28;25.52;;;13.70;;
55146;SDS011;41039;49.830;23.988;2022-11-20T02:34:54;29.65;;;14.00;;
55146;SDS011;41039;49.830;23.988;2022-11-20T02:37:19;33.92;;;14.50;;
55146;SDS011;41039;49.830;23.988;2022-11-20T02:39:46;29.23;;;14.10;;
55146;SDS011;41039;49.830;23.988;2022-11-20T02:42:12;30.75;;;13.73;;
55146;SDS011;41039;49.830;23.988;2022-11-20T02:44:37;27.55;;;13.43;;
55146;SDS011;41039;49.830;23.988;2022-11-20T02:47:03;27.23;;;13.05;;
55146;SDS011;41039;49.830;23.988;2022-11-20T02:49:28;28.77;;;13.98;;
55146;SDS011;41039;49.830;23.988;2022-11-20T02:51:53;30.48;;;14.15;;
55146;SDS011;41039;49.830;23.988;2022-11-20T02:54:19;29.00;;;13.18;;
55146;SDS011;41039;49.830;23.988;2022-11-20T02:56:44;31.58;;;13.27;;
55146;SDS011;41039;49.830;23.988;2022-11-20T02:59:09;31.27;;;15.05;;
55146;SDS011;41039;49.830;23.988;2022-11-20T03:01:35;28.20;;;12.60;;
55146;SDS011;41039;49.830;23.988;2022-11-20T03:04:00;29.15;;;14.05;;
55146;SDS011;41039;49.830;23.988;2022-11-20T03:06:25;31.00;;;13.88;;
55146;SDS011;41039;49.830;23.988;2022-11-20T03:08:50;32.08;;;14.85;;
55146;SDS011;41039;49.830;23.988;2022-11-20T03:11:16;32.65;;;14.38;;
55146;SDS011;41039;49.830;23.988;2022-11-20T03:13:42;30.23;;;14.13;;
55146;SDS011;41039;49.830;23.988;2022-11-20T03:16:12;33.75;;;15.63;;
55146;SDS011;41039;49.830;23.988;2022-11-20T03:18:38;33.78;;;15.55;;
55146;SDS011;41039;49.830;23.988;2022-11-20T03:21:03;29.98;;;15.43;;
55146;SDS011;41039;49.830;23.988;2022-11-20T03:23:29;29.48;;;14.30;;
55146;SDS011;41039;49.830;23.988;2022-11-20T03:25:56;35.03;;;15.45;;
55146;SDS011;41039;49.830;23.988;2022-11-20T03:28:21;41.17;;;15.45;;
55146;SDS011;41039;49.830;23.988;2022-11-20T03:30:46;36.67;;;16.38;;
55146;SDS011;41039;49.830;23.988;2022-11-20T03:33:11;36.50;;;16.60;;
55146;SDS011;41039;49.830;23.988;2022-11-20T03:35:37;32.45;;;15.20;;
55146;SDS011;41039;49.830;23.988;2022-11-20T03:38:02;38.05;;;16.67;;
55146;SDS011;41039;49.830;23.988;2022-11-20T03:40:27;41.67;;;17.60;;
55146;SDS011;41039;49.830;23.988;2022-11-20T03:42:52;33.88;;;15.68;;
55146;SDS011;41039;49.830;23.988;2022-11-20T03:45:18;38.03;;;15.95;;
55146;SDS011;41039;49.830;23.988;2022-11-20T03:47:43;38.00;;;17.33;;
55146;SDS011;41039;49.830;23.988;2022-11-20T03:50:10;41.22;;;17.95;;
55146;SDS011;41039;49.830;23.988;2022-11-20T03:52:40;36.92;;;17.50;;
55146;SDS011;41039;49.830;23.988;2022-11-20T03:55:06;36.53;;;17.52;;
55146;SDS011;41039;49.830;23.988;2022-11-20T03:57:32;38.95;;;17.45;;
55146;SDS011;41039;49.830;23.988;2022-11-20T03:59:57;38.05;;;18.27;;
55146;SDS011;41039;49.830;23.988;2022-11-20T04:02:22;48.05;;;22.52;;
55146;SDS011;41039;49.830;23.988;2022-11-20T04:04:47;48.90;;;22.02;;
55146;SDS011;41039;49.830;23.988;2022-11-20T04:07:13;46.83;;;20.27;;
55146;SDS011;41039;49.830;23.988;2022-11-20T04:09:38;47.70;;;23.50;;
55146;SDS011;41039;49.830;23.988;2022-11-20T04:12:03;39.50;;;17.42;;
55146;SDS011;41039;49.830;23.988;2022-11-20T04:14:28;46.58;;;19.13;;
55146;SDS011;41039;49.830;23.988;2022-11-20T04:16:54;45.15;;;20.20;;
55146;SDS011;41039;49.830;23.988;2022-11-20T04:19:19;42.30;;;18.58;;
55146;SDS011;41039;49.830;23.988;2022-11-20T04:21:44;46.85;;;21.98;;
55146;SDS011;41039;49.830;23.988;2022-11-20T04:24:10;46.72;;;20.83;;
55146;SDS011;41039;49.830;23.988;2022-11-20T04:26:35;41.38;;;19.33;;
55146;SDS011;41039;49.830;23.988;2022-11-20T04:29:01;47.50;;;23.15;;
55146;SDS011;41039;49.830;23.988;2022-11-20T04:31:31;44.33;;;21.27;;
55146;SDS011;41039;49.830;23.988;2022-11-20T04:34:00;56.90;;;23.08;;
55146;SDS011;41039;49.830;23.988;2022-11-20T04:36:26;48.40;;;21.23;;
55146;SDS011;41039;49.830;23.988;2022-11-20T04:39:34;45.97;;;19.65;;
55146;SDS011;41039;49.830;23.988;2022-11-20T04:41:43;50.50;;;21.38;;
55146;SDS011;41039;49.830;23.988;2022-11-20T04:44:08;39.67;;;19.85;;
55146;SDS011;41039;49.830;23.988;2022-11-20T04:46:34;40.90;;;19.50;;
55146;SDS011;41039;49.830;23.988;2022-11-20T04:49:00;43.67;;;18.92;;
55146;SDS011;41039;49.830;23.988;2022-11-20T04:51:25;50.50;;;20.70;;
55146;SDS011;41039;49.830;23.988;2022-11-20T04:53:51;52.58;;;19.33;;
55146;SDS011;41039;49.830;23.988;2022-11-20T04:56:16;49.28;;;20.73;;
55146;SDS011;41039;49.830;23.988;2022-11-20T04:58:41;45.38;;;17.85;;
55146;SDS011;41039;49.830;23.988;2022-11-20T05:01:14;51.85;;;20.58;;
55146;SDS011;41039;49.830;23.988;2022-11-20T05:03:40;49.80;;;19.57;;
55146;SDS011;41039;49.830;23.988;2022-11-20T05:06:05;52.55;;;18.55;;
55146;SDS011;41039;49.830;23.988;2022-11-20T05:08:31;47.20;;;18.85;;
55146;SDS011;41039;49.830;23.988;2022-11-20T05:11:07;51.88;;;20.08;;
55146;SDS011;41039;49.830;23.988;2022-11-20T05:13:32;47.88;;;18.23;;
55146;SDS011;41039;49.830;23.988;2022-11-20T05:16:17;51.90;;;18.88;;
55146;SDS011;41039;49.830;23.988;2022-11-20T05:18:43;52.83;;;19.77;;
55146;SDS011;41039;49.830;23.988;2022-11-20T05:21:08;50.38;;;20.27;;
55146;SDS011;41039;49.830;23.988;2022-11-20T05:23:34;44.17;;;18.23;;
55146;SDS011;41039;49.830;23.988;2022-11-20T05:25:59;55.00;;;17.80;;
55146;SDS011;41039;49.830;23.988;2022-11-20T05:28:25;47.28;;;18.08;;
55146;SDS011;41039;49.830;23.988;2022-11-20T05:30:51;48.05;;;19.50;;
55146;SDS011;41039;49.830;23.988;2022-11-20T05:33:16;50.22;;;20.20;;
55146;SDS011;41039;49.830;23.988;2022-11-20T05:35:42;52.28;;;20.30;;
55146;SDS011;41039;49.830;23.988;2022-11-20T05:38:07;53.80;;;18.95;;
55146;SDS011;41039;49.830;23.988;2022-11-20T05:40:33;48.10;;;18.65;;
55146;SDS011;41039;49.830;23.988;2022-11-20T05:42:59;54.35;;;20.05;;
55146;SDS011;41039;49.830;23.988;2022-11-20T05:45:24;48.63;;;19.80;;
55146;SDS011;41039;49.830;23.988;2022-11-20T05:47:49;60.92;;;21.23;;
55146;SDS011;41039;49.830;23.988;2022-11-20T05:50:14;60.33;;;21.40;;
55146;SDS011;41039;49.830;23.988;2022-11-20T05:52:40;46.28;;;18.35;;
55146;SDS011;41039;49.830;23.988;2022-11-20T05:55:05;45.08;;;19.25;;
55146;SDS011;41039;49.830;23.988;2022-11-20T05:57:31;58.90;;;20.88;;
55146;SDS011;41039;49.830;23.988;2022-11-20T05:59:56;57.33;;;19.88;;
55146;SDS011;41039;49.830;23.988;2022-11-20T06:02:21;57.58;;;20.05;;
55146;SDS011;41039;49.830;23.988;2022-11-20T06:04:46;48.53;;;17.80;;
55146;SDS011;41039;49.830;23.988;2022-11-20T06:07:12;53.85;;;18.92;;
55146;SDS011;41039;49.830;23.988;2022-11-20T06:09:37;50.40;;;18.95;;
55146;SDS011;41039;49.830;23.988;2022-11-20T06:12:02;55.05;;;20.60;;
55146;SDS011;41039;49.830;23.988;2022-11-20T06:14:28;58.83;;;21.35;;
55146;SDS011;41039;49.830;23.988;2022-11-20T06:16:53;51.72;;;19.88;;
55146;SDS011;41039;49.830;23.988;2022-11-20T06:19:18;56.50;;;21.65;;
55146;SDS011;41039;49.830;23.988;2022-11-20T06:21:43;55.00;;;20.60;;
55146;SDS011;41039;49.830;23.988;2022-11-20T06:24:09;47.03;;;19.52;;
55146;SDS011;41039;49.830;23.988;2022-11-20T06:26:34;49.72;;;20.50;;
55146;SDS011;41039;49.830;23.988;2022-11-20T06:28:59;55.85;;;23.50;;
55146;SDS011;41039;49.830;23.988;2022-11-20T06:31:25;60.47;;;21.48;;
55146;SDS011;41039;49.830;23.988;2022-11-20T06:33:51;56.92;;;21.27;;
55146;SDS011;41039;49.830;23.988;2022-11-20T06:36:17;54.65;;;21.77;;
55146;SDS011;41039;49.830;23.988;2022-11-20T06:38:43;61.28;;;20.15;;
55146;SDS011;41039;49.830;23.988;2022-11-20T06:41:15;52.58;;;21.27;;
55146;SDS011;41039;49.830;23.988;2022-11-20T06:43:41;52.58;;;18.85;;
55146;SDS011;41039;49.830;23.988;2022-11-20T06:46:08;57.85;;;21.50;;
55146;SDS011;41039;49.830;23.988;2022-11-20T06:48:33;51.30;;;19.90;;
55146;SDS011;41039;49.830;23.988;2022-11-20T06:50:59;58.45;;;23.17;;
55146;SDS011;41039;49.830;23.988;2022-11-20T06:53:24;57.90;;;21.70;;
55146;SDS011;41039;49.830;23.988;2022-11-20T06:55:50;48.15;;;20.20;;
55146;SDS011;41039;49.830;23.988;2022-11-20T06:58:16;50.65;;;20.63;;
55146;SDS011;41039;49.830;23.988;2022-11-20T07:00:41;58.17;;;22.90;;
55146;SDS011;41039;49.830;23.988;2022-11-20T07:03:07;56.15;;;22.13;;
55146;SDS011;41039;49.830;23.988;2022-11-20T07:05:34;57.75;;;19.92;;
55146;SDS011;41039;49.830;23.988;2022-11-20T07:07:59;55.60;;;23.05;;
55146;SDS011;41039;49.830;23.988;2022-11-20T07:10:25;54.60;;;21.80;;
55146;SDS011;41039;49.830;23.988;2022-11-20T07:12:53;57.08;;;21.48;;
55146;SDS011;41039;49.830;23.988;2022-11-20T07:15:20;55.75;;;19.83;;
55146;SDS011;41039;49.830;23.988;2022-11-20T07:17:45;50.30;;;19.67;;
55146;SDS011;41039;49.830;23.988;2022-11-20T07:20:10;55.60;;;19.88;;
55146;SDS011;41039;49.830;23.988;2022-11-20T07:22:36;50.80;;;20.92;;
55146;SDS011;41039;49.830;23.988;2022-11-20T07:25:02;51.03;;;19.77;;
55146;SDS011;41039;49.830;23.988;2022-11-20T07:27:27;48.53;;;21.27;;
55146;SDS011;41039;49.830;23.988;2022-11-20T07:29:52;59.92;;;24.33;;
55146;SDS011;41039;49.830;23.988;2022-11-20T07:32:18;56.13;;;23.30;;
55146;SDS011;41039;49.830;23.988;2022-11-20T07:34:43;53.13;;;20.60;;
55146;SDS011;41039;49.830;23.988;2022-11-20T07:37:08;58.15;;;23.92;;
55146;SDS011;41039;49.830;23.988;2022-11-20T07:39:33;56.47;;;26.17;;
55146;SDS011;41039;49.830;23.988;2022-11-20T07:41:59;57.03;;;22.98;;
55146;SDS011;41039;49.830;23.988;2022-11-20T07:44:24;56.78;;;22.00;;
55146;SDS011;41039;49.830;23.988;2022-11-20T07:46:49;47.85;;;20.05;;
55146;SDS011;41039;49.830;23.988;2022-11-20T07:49:14;49.63;;;20.17;;
55146;SDS011;41039;49.830;23.988;2022-11-20T07:51:40;54.05;;;21.02;;
55146;SDS011;41039;49.830;23.988;2022-11-20T07:54:05;46.08;;;19.98;;
55146;SDS011;41039;49.830;23.988;2022-11-20T07:56:30;55.08;;;21.45;;
55146;SDS011;41039;49.830;23.988;2022-11-20T07:58:55;56.17;;;23.95;;
55146;SDS011;41039;49.830;23.988;2022-11-20T08:01:21;58.20;;;22.00;;
55146;SDS011;41039;49.830;23.988;2022-11-20T08:03:46;51.78;;;21.15;;
55146;SDS011;41039;49.830;23.988;2022-11-20T08:06:11;51.95;;;20.27;;
55146;SDS011;41039;49.830;23.988;2022-11-20T08:08:36;53.60;;;22.00;;
55146;SDS011;41039;49.830;23.988;2022-11-20T08:11:04;50.10;;;21.00;;
55146;SDS011;41039;49.830;23.988;2022-11-20T08:16:31;46.60;;;19.63;;
55146;SDS011;41039;49.830;23.988;2022-11-20T08:18:56;55.65;;;22.10;;
55146;SDS011;41039;49.830;23.988;2022-11-20T08:21:22;47.00;;;19.95;;
55146;SDS011;41039;49.830;23.988;2022-11-20T08:23:47;53.80;;;19.65;;
55146;SDS011;41039;49.830;23.988;2022-11-20T08:26:12;57.33;;;18.98;;
55146;SDS011;41039;49.830;23.988;2022-11-20T08:28:37;54.90;;;21.05;;
55146;SDS011;41039;49.830;23.988;2022-11-20T08:31:03;46.65;;;18.88;;
55146;SDS011;41039;49.830;23.988;2022-11-20T08:33:28;41.05;;;17.50;;
55146;SDS011;41039;49.830;23.988;2022-11-20T08:35:58;52.22;;;20.15;;
55146;SDS011;41039;49.830;23.988;2022-11-20T08:38:23;54.40;;;22.02;;
55146;SDS011;41039;49.830;23.988;2022-11-20T08:40:48;58.05;;;22.48;;
55146;SDS011;41039;49.830;23.988;2022-11-20T08:43:33;45.88;;;18.63;;
55146;SDS011;41039;49.830;23.988;2022-11-20T08:45:58;55.50;;;23.10;;
55146;SDS011;41039;49.830;23.988;2022-11-20T08:48:24;53.28;;;21.33;;
55146;SDS011;41039;49.830;23.988;2022-11-20T08:50:49;43.75;;;21.83;;
55146;SDS011;41039;49.830;23.988;2022-11-20T08:53:14;48.33;;;19.27;;
55146;SDS011;41039;49.830;23.988;2022-11-20T08:55:39;49.80;;;19.50;;
55146;SDS011;41039;49.830;23.988;2022-11-20T08:58:05;42.92;;;18.35;;
55146;SDS011;41039;49.830;23.988;2022-11-20T09:00:31;42.92;;;18.52;;
55146;SDS011;41039;49.830;23.988;2022-11-20T09:02:57;44.38;;;18.55;;
55146;SDS011;41039;49.830;23.988;2022-11-20T09:05:23;42.42;;;19.33;;
55146;SDS011;41039;49.830;23.988;2022-11-20T09:07:48;49.97;;;24.67;;
55146;SDS011;41039;49.830;23.988;2022-11-20T09:10:14;48.55;;;19.17;;
55146;SDS011;41039;49.830;23.988;2022-11-20T09:12:39;53.13;;;22.88;;
55146;SDS011;41039;49.830;23.988;2022-11-20T09:15:04;51.30;;;22.20;;
55146;SDS011;41039;49.830;23.988;2022-11-20T09:17:30;47.20;;;18.70;;
55146;SDS011;41039;49.830;23.988;2022-11-20T09:19:55;64.28;;;29.83;;
55146;SDS011;41039;49.830;23.988;2022-11-20T09:22:20;83.80;;;40.28;;
55146;SDS011;41039;49.830;23.988;2022-11-20T09:24:45;46.65;;;20.55;;
55146;SDS011;41039;49.830;23.988;2022-11-20T09:27:11;52.05;;;23.20;;
55146;SDS011;41039;49.830;23.988;2022-11-20T09:29:36;44.20;;;18.55;;
55146;SDS011;41039;49.830;23.988;2022-11-20T09:32:01;51.17;;;24.27;;
55146;SDS011;41039;49.830;23.988;2022-11-20T09:34:26;36.50;;;16.08;;
55146;SDS011;41039;49.830;23.988;2022-11-20T09:36:52;45.50;;;21.08;;
55146;SDS011;41039;49.830;23.988;2022-11-20T09:39:17;45.25;;;22.58;;
55146;SDS011;41039;49.830;23.988;2022-11-20T09:44:13;42.22;;;21.85;;
55146;SDS011;41039;49.830;23.988;2022-11-20T09:49:39;29.35;;;15.63;;
55146;SDS011;41039;49.830;23.988;2022-11-20T09:54:39;34.40;;;17.73;;
55146;SDS011;41039;49.830;23.988;2022-11-20T09:57:09;39.95;;;21.63;;
55146;SDS011;41039;49.830;23.988;2022-11-20T09:59:42;41.50;;;23.13;;
55146;SDS011;41039;49.830;23.988;2022-11-20T10:02:29;33.47;;;18.13;;
55146;SDS011;41039;49.830;23.988;2022-11-20T10:05:10;28.52;;;14.50;;
55146;SDS011;41039;49.830;23.988;2022-11-20T10:10:03;27.83;;;15.85;;
55146;SDS011;41039;49.830;23.988;2022-11-20T10:20:33;24.52;;;12.23;;
55146;SDS011;41039;49.830;23.988;2022-11-20T10:23:13;29.05;;;15.00;;
55146;SDS011;41039;49.830;23.988;2022-11-20T10:25:48;30.55;;;14.65;;
55146;SDS011;41039;49.830;23.988;2022-11-20T10:29:06;30.48;;;17.08;;
55146;SDS011;41039;49.830;23.988;2022-11-20T10:31:07;31.95;;;15.43;;
55146;SDS011;41039;49.830;23.988;2022-11-20T10:33:36;38.30;;;18.83;;
55146;SDS011;41039;49.830;23.988;2022-11-20T10:38:37;26.95;;;15.57;;
55146;SDS011;41039;49.830;23.988;2022-11-20T10:41:03;28.30;;;15.05;;
55146;SDS011;41039;49.830;23.988;2022-11-20T10:43:49;22.63;;;12.32;;
55146;SDS011;41039;49.830;23.988;2022-11-20T10:46:17;26.98;;;13.43;;
55146;SDS011;41039;49.830;23.988;2022-11-20T10:48:43;33.75;;;17.52;;
55146;SDS011;41039;49.830;23.988;2022-11-20T10:51:30;27.20;;;13.90;;
55146;SDS011;41039;49.830;23.988;2022-11-20T10:54:12;29.35;;;16.48;;
55146;SDS011;41039;49.830;23.988;2022-11-20T10:56:51;32.58;;;16.67;;
55146;SDS011;41039;49.830;23.988;2022-11-20T10:59:26;32.90;;;17.35;;
55146;SDS011;41039;49.830;23.988;2022-11-20T11:01:52;31.02;;;15.38;;
55146;SDS011;41039;49.830;23.988;2022-11-20T11:06:46;34.05;;;19.35;;
55146;SDS011;41039;49.830;23.988;2022-11-20T11:09:15;27.00;;;13.77;;
55146;SDS011;41039;49.830;23.988;2022-11-20T11:11:41;30.65;;;16.55;;
55146;SDS011;41039;49.830;23.988;2022-11-20T11:14:11;27.65;;;14.02;;
55146;SDS011;41039;49.830;23.988;2022-11-20T11:16:40;34.80;;;17.73;;
55146;SDS011;41039;49.830;23.988;2022-11-20T11:19:13;25.75;;;13.35;;
55146;SDS011;41039;49.830;23.988;2022-11-20T11:21:38;25.25;;;14.05;;
55146;SDS011;41039;49.830;23.988;2022-11-20T11:24:15;26.83;;;16.27;;
55146;SDS011;41039;49.830;23.988;2022-11-20T11:26:50;29.90;;;17.25;;
55146;SDS011;41039;49.830;23.988;2022-11-20T11:29:17;30.30;;;15.95;;
55146;SDS011;41039;49.830;23.988;2022-11-20T11:31:42;28.73;;;13.02;;
55146;SDS011;41039;49.830;23.988;2022-11-20T11:34:11;21.92;;;11.18;;
55146;SDS011;41039;49.830;23.988;2022-11-20T11:36:37;24.73;;;12.73;;
55146;SDS011;41039;49.830;23.988;2022-11-20T11:39:03;23.17;;;14.25;;
55146;SDS011;41039;49.830;23.988;2022-11-20T11:41:31;25.13;;;12.95;;
55146;SDS011;41039;49.830;23.988;2022-11-20T11:44:43;24.48;;;11.40;;
55146;SDS011;41039;49.830;23.988;2022-11-20T11:47:04;31.55;;;16.98;;
55146;SDS011;41039;49.830;23.988;2022-11-20T11:49:31;28.17;;;14.85;;
55146;SDS011;41039;49.830;23.988;2022-11-20T11:57:20;27.42;;;14.65;;
55146;SDS011;41039;49.830;23.988;2022-11-20T12:02:31;27.70;;;14.98;;
55146;SDS011;41039;49.830;23.988;2022-11-20T12:04:59;22.00;;;12.05;;
55146;SDS011;41039;49.830;23.988;2022-11-20T12:10:24;19.27;;;11.75;;
55146;SDS011;41039;49.830;23.988;2022-11-20T12:13:04;17.70;;;10.40;;
55146;SDS011;41039;49.830;23.988;2022-11-20T12:15:33;19.83;;;12.05;;
55146;SDS011;41039;49.830;23.988;2022-11-20T12:17:59;21.35;;;13.10;;
55146;SDS011;41039;49.830;23.988;2022-11-20T12:20:28;19.38;;;11.90;;
55146;SDS011;41039;49.830;23.988;2022-11-20T12:25:37;16.75;;;10.00;;
55146;SDS011;41039;49.830;23.988;2022-11-20T12:28:13;16.88;;;10.05;;
55146;SDS011;41039;49.830;23.988;2022-11-20T12:33:42;18.88;;;10.20;;
55146;SDS011;41039;49.830;23.988;2022-11-20T12:44:34;17.33;;;10.18;;
55146;SDS011;41039;49.830;23.988;2022-11-20T12:47:43;14.57;;;8.68;;
55146;SDS011;41039;49.830;23.988;2022-11-20T13:07:49;18.83;;;9.90;;
55146;SDS011;41039;49.830;23.988;2022-11-20T13:13:21;20.85;;;11.27;;
55146;SDS011;41039;49.830;23.988;2022-11-20T13:18:13;13.25;;;8.55;;
55146;SDS011;41039;49.830;23.988;2022-11-20T13:20:42;18.08;;;10.05;;
55146;SDS011;41039;49.830;23.988;2022-11-20T13:23:08;16.95;;;9.50;;
55146;SDS011;41039;49.830;23.988;2022-11-20T13:25:34;15.88;;;10.65;;
55146;SDS011;41039;49.830;23.988;2022-11-20T13:28:03;17.30;;;10.43;;
55146;SDS011;41039;49.830;23.988;2022-11-20T13:30:29;13.82;;;8.40;;
55146;SDS011;41039;49.830;23.988;2022-11-20T13:32:55;14.18;;;9.07;;
55146;SDS011;41039;49.830;23.988;2022-11-20T13:35:28;15.75;;;10.15;;
55146;SDS011;41039;49.830;23.988;2022-11-20T13:38:13;18.88;;;13.60;;
55146;SDS011;41039;49.830;23.988;2022-11-20T13:48:26;15.20;;;7.25;;
55146;SDS011;41039;49.830;23.988;2022-11-20T13:50:55;23.05;;;14.15;;
55146;SDS011;41039;49.830;23.988;2022-11-20T13:53:34;14.88;;;10.18;;
55146;SDS011;41039;49.830;23.988;2022-11-20T14:01:09;13.75;;;7.63;;
55146;SDS011;41039;49.830;23.988;2022-11-20T14:06:01;13.23;;;7.93;;
55146;SDS011;41039;49.830;23.988;2022-11-20T14:11:02;12.75;;;7.07;;
55146;SDS011;41039;49.830;23.988;2022-11-20T14:13:27;11.98;;;7.40;;
55146;SDS011;41039;49.830;23.988;2022-11-20T14:15:56;13.25;;;8.95;;
55146;SDS011;41039;49.830;23.988;2022-11-20T14:18:21;16.05;;;9.88;;
55146;SDS011;41039;49.830;23.988;2022-11-20T14:20:47;17.77;;;8.95;;
55146;SDS011;41039;49.830;23.988;2022-11-20T14:23:12;13.07;;;8.50;;
55146;SDS011;41039;49.830;23.988;2022-11-20T14:25:41;13.77;;;8.98;;
55146;SDS011;41039;49.830;23.988;2022-11-20T14:28:10;12.00;;;8.40;;
55146;SDS011;41039;49.830;23.988;2022-11-20T14:30:43;13.13;;;8.50;;
55146;SDS011;41039;49.830;23.988;2022-11-20T14:33:09;16.83;;;9.43;;
55146;SDS011;41039;49.830;23.988;2022-11-20T14:35:37;14.38;;;8.27;;
55146;SDS011;41039;49.830;23.988;2022-11-20T14:38:08;12.43;;;8.90;;
55146;SDS011;41039;49.830;23.988;2022-11-20T14:40:35;16.88;;;10.30;;
55146;SDS011;41039;49.830;23.988;2022-11-20T14:43:01;26.67;;;14.60;;
55146;SDS011;41039;49.830;23.988;2022-11-20T14:45:27;11.60;;;7.97;;
55146;SDS011;41039;49.830;23.988;2022-11-20T14:47:53;11.77;;;7.60;;
55146;SDS011;41039;49.830;23.988;2022-11-20T14:50:26;14.30;;;8.75;;
55146;SDS011;41039;49.830;23.988;2022-11-20T14:52:56;21.60;;;11.27;;
55146;SDS011;41039;49.830;23.988;2022-11-20T14:55:28;13.82;;;8.15;;
55146;SDS011;41039;49.830;23.988;2022-11-20T14:57:59;13.45;;;8.35;;
55146;SDS011;41039;49.830;23.988;2022-11-20T15:00:24;15.55;;;8.18;;
55146;SDS011;41039;49.830;23.988;2022-11-20T15:02:50;17.98;;;10.57;;
55146;SDS011;41039;49.830;23.988;2022-11-20T15:05:17;19.60;;;11.90;;
55146;SDS011;41039;49.830;23.988;2022-11-20T15:07:44;22.08;;;12.65;;
55146;SDS011;41039;49.830;23.988;2022-11-20T15:10:18;20.70;;;13.13;;
55146;SDS011;41039;49.830;23.988;2022-11-20T15:12:49;21.73;;;13.80;;
55146;SDS011;41039;49.830;23.988;2022-11-20T15:15:16;20.88;;;13.50;;
55146;SDS011;41039;49.830;23.988;2022-11-20T15:17:42;24.02;;;16.80;;
55146;SDS011;41039;49.830;23.988;2022-11-20T15:20:11;24.15;;;16.33;;
55146;SDS011;41039;49.830;23.988;2022-11-20T15:22:38;19.90;;;11.63;;
55146;SDS011;41039;49.830;23.988;2022-11-20T15:25:10;16.40;;;9.50;;
55146;SDS011;41039;49.830;23.988;2022-11-20T15:27:36;13.63;;;8.88;;
55146;SDS011;41039;49.830;23.988;2022-11-20T15:30:01;17.40;;;10.40;;
55146;SDS011;41039;49.830;23.988;2022-11-20T15:32:26;19.80;;;11.23;;
55146;SDS011;41039;49.830;23.988;2022-11-20T15:34:52;27.23;;;16.33;;
55146;SDS011;41039;49.830;23.988;2022-11-20T15:37:17;20.50;;;13.60;;
55146;SDS011;41039;49.830;23.988;2022-11-20T15:39:42;26.65;;;15.32;;
55146;SDS011;41039;49.830;23.988;2022-11-20T15:42:07;24.35;;;15.20;;
55146;SDS011;41039;49.830;23.988;2022-11-20T15:44:33;93.43;;;64.10;;
55146;SDS011;41039;49.830;23.988;2022-11-20T15:46:58;33.78;;;21.00;;
55146;SDS011;41039;49.830;23.988;2022-11-20T15:49:23;17.83;;;11.77;;
55146;SDS011;41039;49.830;23.988;2022-11-20T15:51:50;28.23;;;15.30;;